createdAt,value
2017-06-09T00:00:22.673Z,73.03
2017-06-09T00:00:50.764Z,72.55
2017-06-09T00:01:19.264Z,72.64
2017-06-09T00:01:47.473Z,72.84
2017-06-09T00:02:15.654Z,72.55
2017-06-09T00:02:43.745Z,72.74
2017-06-09T00:03:11.935Z,72.68
2017-06-09T00:03:40.174Z,73.42
2017-06-09T00:04:08.357Z,73.42
2017-06-09T00:04:36.440Z,73.13
2017-06-09T00:05:04.493Z,73.03
2017-06-09T00:05:32.568Z,73.22
2017-06-09T00:06:00.716Z,73.13
2017-06-09T00:06:28.784Z,73.42
2017-06-09T00:06:56.749Z,72.64
2017-06-09T00:07:24.851Z,72.64
2017-06-09T00:07:52.829Z,73.22
2017-06-09T00:08:20.996Z,73.03
2017-06-09T00:08:49.179Z,73.22
2017-06-09T00:09:17.392Z,73.42
2017-06-09T00:09:45.462Z,72.64
2017-06-09T00:10:13.628Z,72.36
2017-06-09T00:10:41.814Z,72.55
2017-06-09T00:11:09.980Z,72.55
2017-06-09T00:11:38.173Z,72.74
2017-06-09T00:12:06.355Z,72.55
2017-06-09T00:12:34.518Z,72.55
2017-06-09T00:13:02.704Z,72.74
2017-06-09T00:13:30.783Z,72.74
2017-06-09T00:13:58.949Z,73.03
2017-06-09T00:14:27.033Z,73.32
2017-06-09T00:14:55.196Z,72.26
2017-06-09T00:15:23.339Z,71.97
2017-06-09T00:15:51.401Z,72.55
2017-06-09T00:16:19.509Z,72.45
2017-06-09T00:16:47.659Z,73.32
2017-06-09T00:17:15.741Z,72.74
2017-06-09T00:17:43.735Z,73.32
2017-06-09T00:18:11.837Z,72.36
2017-06-09T00:18:39.979Z,72.26
2017-06-09T00:19:08.179Z,73.03
2017-06-09T00:19:36.303Z,72.16
2017-06-09T00:20:04.381Z,72.45
2017-06-09T00:20:32.533Z,71.97
2017-06-09T00:21:00.590Z,71.88
2017-06-09T00:21:28.668Z,71.88
2017-06-09T00:21:56.842Z,71.88
2017-06-09T00:22:24.949Z,72.74
2017-06-09T00:22:53.129Z,72.16
2017-06-09T00:23:21.294Z,71.78
2017-06-09T00:23:49.382Z,72.26
2017-06-09T00:24:17.575Z,71.48
2017-06-09T00:24:45.775Z,71.68
2017-06-09T00:25:13.885Z,71.97
2017-06-09T00:25:41.978Z,71.78
2017-06-09T00:26:10.129Z,71.1
2017-06-09T00:26:38.256Z,71.52
2017-06-09T00:27:06.470Z,71.62
2017-06-09T00:27:34.569Z,71.1
2017-06-09T00:28:02.686Z,70.75
2017-06-09T00:28:30.774Z,70.65
2017-06-09T00:28:58.758Z,70.84
2017-06-09T00:29:26.899Z,70.84
2017-06-09T00:29:54.972Z,70.26
2017-06-09T00:30:23.098Z,70.07
2017-06-09T00:30:51.166Z,70.36
2017-06-09T00:31:19.245Z,70.26
2017-06-09T00:31:47.397Z,70.36
2017-06-09T00:32:15.529Z,70.17
2017-06-09T00:32:43.715Z,70.36
2017-06-09T00:33:11.694Z,70.07
2017-06-09T00:33:39.858Z,70.84
2017-06-09T00:34:08.019Z,70.75
2017-06-09T00:34:36.134Z,71.04
2017-06-09T00:35:04.249Z,70.75
2017-06-09T00:35:32.326Z,70.07
2017-06-09T00:36:00.486Z,70.17
2017-06-09T00:36:43.264Z,69.72
2017-06-09T00:37:11.442Z,69.3
2017-06-09T00:37:39.435Z,69.78
2017-06-09T00:38:07.612Z,69.88
2017-06-09T00:38:35.790Z,69.59
2017-06-09T00:39:03.978Z,69.88
2017-06-09T00:39:32.106Z,69.98
2017-06-09T00:40:00.172Z,69.88
2017-06-09T00:40:28.354Z,70.4
2017-06-09T00:40:56.543Z,70.1
2017-06-09T00:41:24.725Z,70.17
2017-06-09T00:41:52.905Z,69.72
2017-06-09T00:42:20.979Z,69.92
2017-06-09T00:42:49.164Z,69.43
2017-06-09T00:43:17.334Z,70.07
2017-06-09T00:43:45.407Z,70.1
2017-06-09T00:44:13.575Z,69.62
2017-06-09T00:44:41.738Z,70.01
2017-06-09T00:45:09.888Z,69.98
2017-06-09T00:45:37.980Z,70.2
2017-06-09T00:46:06.156Z,70.1
2017-06-09T00:46:34.321Z,70.3
2017-06-09T00:47:02.305Z,70.17
2017-06-09T00:47:30.497Z,69.88
2017-06-09T00:47:58.493Z,69.68
2017-06-09T00:48:26.657Z,70.46
2017-06-09T00:48:54.838Z,70.26
2017-06-09T00:49:23.019Z,70.36
2017-06-09T00:49:50.989Z,70.4
2017-06-09T00:50:19.173Z,70.17
2017-06-09T00:50:47.372Z,70.2
2017-06-09T00:51:15.437Z,70.3
2017-06-09T00:51:43.612Z,70.07
2017-06-09T00:52:11.778Z,70.36
2017-06-09T00:52:39.860Z,70.26
2017-06-09T00:53:08.090Z,70.07
2017-06-09T00:53:36.086Z,70.26
2017-06-09T00:54:04.063Z,70.26
2017-06-09T00:54:32.256Z,70.65
2017-06-09T00:55:00.365Z,71.04
2017-06-09T00:55:28.472Z,70.65
2017-06-09T00:55:56.552Z,70.26
2017-06-09T00:56:24.619Z,70.26
2017-06-09T00:56:52.799Z,70.84
2017-06-09T00:57:20.963Z,70.36
2017-06-09T00:57:49.047Z,70.07
2017-06-09T00:58:17.200Z,70.46
2017-06-09T00:58:45.289Z,70.26
2017-06-09T00:59:13.479Z,70.36
2017-06-09T00:59:41.658Z,70.36
2017-06-09T01:00:10.045Z,70.56
2017-06-09T01:00:38.220Z,70.17
2017-06-09T01:01:06.184Z,70.26
2017-06-09T01:01:34.265Z,70.26
2017-06-09T01:02:02.467Z,70.36
2017-06-09T01:02:30.554Z,70.26
2017-06-09T01:02:58.618Z,70.36
2017-06-09T01:03:26.795Z,70.75
2017-06-09T01:03:54.987Z,70.26
2017-06-09T01:04:22.997Z,70.07
2017-06-09T01:04:51.151Z,70.17
2017-06-09T01:05:19.311Z,70.17
2017-06-09T01:05:47.468Z,70.94
2017-06-09T01:06:15.607Z,70.36
2017-06-09T01:06:43.781Z,70.36
2017-06-09T01:07:11.924Z,70.36
2017-06-09T01:07:39.902Z,70.84
2017-06-09T01:08:07.978Z,70.46
2017-06-09T01:08:36.079Z,71.23
2017-06-09T01:09:04.244Z,70.84
2017-06-09T01:09:32.418Z,70.36
2017-06-09T01:10:00.585Z,70.46
2017-06-09T01:10:28.761Z,70.84
2017-06-09T01:10:56.934Z,70.65
2017-06-09T01:11:25.114Z,70.36
2017-06-09T01:11:53.231Z,70.17
2017-06-09T01:12:21.289Z,70.46
2017-06-09T01:12:49.444Z,70.26
2017-06-09T01:13:17.612Z,70.26
2017-06-09T01:13:45.705Z,70.36
2017-06-09T01:14:13.809Z,70.17
2017-06-09T01:14:42.010Z,70.07
2017-06-09T01:15:10.115Z,69.98
2017-06-09T01:15:38.277Z,70.26
2017-06-09T01:16:06.465Z,70.26
2017-06-09T01:16:34.569Z,70.36
2017-06-09T01:17:02.773Z,70.26
2017-06-09T01:17:30.748Z,69.78
2017-06-09T01:17:58.945Z,70.07
2017-06-09T01:18:27.140Z,70.46
2017-06-09T01:18:55.321Z,70.26
2017-06-09T01:19:23.315Z,70.17
2017-06-09T01:19:51.506Z,70.07
2017-06-09T01:20:19.578Z,70.56
2017-06-09T01:20:47.754Z,70.46
2017-06-09T01:21:15.809Z,70.46
2017-06-09T01:21:43.979Z,70.36
2017-06-09T01:22:11.923Z,70.07
2017-06-09T01:22:40.083Z,70.46
2017-06-09T01:23:08.246Z,70.46
2017-06-09T01:23:36.308Z,70.46
2017-06-09T01:24:04.388Z,70.26
2017-06-09T01:24:32.462Z,70.36
2017-06-09T01:25:00.611Z,70.26
2017-06-09T01:25:28.794Z,70.26
2017-06-09T01:25:56.963Z,70.17
2017-06-09T01:26:25.101Z,70.07
2017-06-09T01:26:53.164Z,70.07
2017-06-09T01:27:21.342Z,70.17
2017-06-09T01:27:49.314Z,70.17
2017-06-09T01:28:17.312Z,70.84
2017-06-09T01:28:45.304Z,70.26
2017-06-09T01:29:13.494Z,70.46
2017-06-09T01:29:41.579Z,70.36
2017-06-09T01:30:09.769Z,70.17
2017-06-09T01:30:37.946Z,70.07
2017-06-09T01:31:06.116Z,70.07
2017-06-09T01:31:34.179Z,70.65
2017-06-09T01:32:02.360Z,70.84
2017-06-09T01:32:30.448Z,70.36
2017-06-09T01:32:58.443Z,70.65
2017-06-09T01:33:26.623Z,70.56
2017-06-09T01:33:54.710Z,70.46
2017-06-09T01:34:22.828Z,70.36
2017-06-09T01:34:50.990Z,70.36
2017-06-09T01:35:19.144Z,70.94
2017-06-09T01:35:47.239Z,70.75
2017-06-09T01:36:15.407Z,70.75
2017-06-09T01:36:43.586Z,70.75
2017-06-09T01:37:11.771Z,71.04
2017-06-09T01:37:39.736Z,71.04
2017-06-09T01:38:07.904Z,71.42
2017-06-09T01:38:35.875Z,70.84
2017-06-09T01:39:04.042Z,70.75
2017-06-09T01:39:32.130Z,70.75
2017-06-09T01:40:00.210Z,70.84
2017-06-09T01:40:28.380Z,70.94
2017-06-09T01:40:56.569Z,70.75
2017-06-09T01:41:24.646Z,70.84
2017-06-09T01:41:52.801Z,70.65
2017-06-09T01:42:20.789Z,71.04
2017-06-09T01:42:48.955Z,71.33
2017-06-09T01:43:17.145Z,71.42
2017-06-09T01:43:45.330Z,71.42
2017-06-09T01:44:13.385Z,70.65
2017-06-09T01:44:41.584Z,70.84
2017-06-09T01:45:09.668Z,71.23
2017-06-09T01:45:37.766Z,71.14
2017-06-09T01:46:05.939Z,70.84
2017-06-09T01:46:34.133Z,71.42
2017-06-09T01:47:02.212Z,71.33
2017-06-09T01:47:30.291Z,71.14
2017-06-09T01:47:58.467Z,71.04
2017-06-09T01:48:26.612Z,71.14
2017-06-09T01:48:54.843Z,71.42
2017-06-09T01:49:22.917Z,71.62
2017-06-09T01:49:50.980Z,71.42
2017-06-09T01:50:19.062Z,71.91
2017-06-09T01:50:47.154Z,72.58
2017-06-09T01:51:15.319Z,72.58
2017-06-09T01:51:43.508Z,71.48
2017-06-09T01:52:11.687Z,72.1
2017-06-09T01:52:39.797Z,71.91
2017-06-09T01:53:07.851Z,71.97
2017-06-09T01:53:35.918Z,71.91
2017-06-09T01:54:04.072Z,71.48
2017-06-09T01:54:32.263Z,71.58
2017-06-09T01:55:00.422Z,71.97
2017-06-09T01:55:28.604Z,71.91
2017-06-09T01:55:56.793Z,71.97
2017-06-09T01:56:24.860Z,72.06
2017-06-09T01:56:52.917Z,72.49
2017-06-09T01:57:21.076Z,73.13
2017-06-09T01:57:49.229Z,72.84
2017-06-09T01:58:17.304Z,72.45
2017-06-09T01:58:45.368Z,72.45
2017-06-09T01:59:13.354Z,72.49
2017-06-09T01:59:41.511Z,72.74
2017-06-09T02:00:09.687Z,73.03
2017-06-09T02:00:37.857Z,73.13
2017-06-09T02:01:06.043Z,73.03
2017-06-09T02:01:34.192Z,73.22
2017-06-09T02:02:02.341Z,73.32
2017-06-09T02:02:30.398Z,73.32
2017-06-09T02:02:58.586Z,73.22
2017-06-09T02:03:26.454Z,73.8
2017-06-09T02:03:54.639Z,73.71
2017-06-09T02:04:22.816Z,73.71
2017-06-09T02:04:50.965Z,74
2017-06-09T02:05:19.120Z,73.8
2017-06-09T02:05:47.304Z,73.42
2017-06-09T02:06:15.481Z,73.8
2017-06-09T02:06:43.551Z,74.29
2017-06-09T02:07:11.726Z,74.38
2017-06-09T02:07:39.897Z,74.48
2017-06-09T02:08:07.933Z,74.68
2017-06-09T02:08:36.111Z,74.58
2017-06-09T02:09:04.179Z,74.38
2017-06-09T02:09:32.370Z,74.35
2017-06-09T02:10:00.528Z,74.68
2017-06-09T02:10:28.600Z,74.38
2017-06-09T02:10:56.765Z,74.35
2017-06-09T02:11:24.848Z,74.64
2017-06-09T02:11:52.949Z,75.41
2017-06-09T02:12:21.103Z,75.79
2017-06-09T02:12:49.271Z,75.51
2017-06-09T02:13:17.442Z,75.02
2017-06-09T02:13:45.507Z,75.79
2017-06-09T02:14:13.605Z,75.41
2017-06-09T02:14:41.749Z,75.79
2017-06-09T02:15:09.816Z,75.7
2017-06-09T02:15:37.897Z,75.89
2017-06-09T02:16:05.981Z,75.79
2017-06-09T02:16:34.166Z,75.12
2017-06-09T02:17:02.345Z,75.41
2017-06-09T02:17:30.445Z,74.83
2017-06-09T02:17:58.615Z,74.64
2017-06-09T02:18:26.807Z,74.73
2017-06-09T02:18:54.996Z,75.31
2017-06-09T02:19:23.176Z,75.41
2017-06-09T02:19:51.255Z,75.7
2017-06-09T02:20:19.439Z,75.6
2017-06-09T02:20:47.528Z,75.31
2017-06-09T02:21:15.703Z,75.99
2017-06-09T02:21:43.903Z,76.18
2017-06-09T02:22:12.061Z,76.05
2017-06-09T02:22:40.162Z,75.99
2017-06-09T02:23:08.344Z,75.99
2017-06-09T02:23:36.454Z,75.99
2017-06-09T02:24:04.522Z,75.99
2017-06-09T02:24:32.697Z,75.57
2017-06-09T02:25:00.868Z,76.09
2017-06-09T02:25:29.038Z,76.28
2017-06-09T02:25:57.145Z,76.28
2017-06-09T02:26:25.265Z,75.99
2017-06-09T02:26:53.423Z,76.09
2017-06-09T02:27:21.516Z,76.43
2017-06-09T02:27:49.700Z,76.28
2017-06-09T02:28:17.773Z,76.28
2017-06-09T02:28:45.860Z,76.37
2017-06-09T02:29:13.930Z,76.37
2017-06-09T02:29:42.098Z,76.63
2017-06-09T02:30:10.306Z,76.86
2017-06-09T02:30:38.395Z,77.15
2017-06-09T02:31:06.566Z,77.15
2017-06-09T02:31:34.741Z,76.34
2017-06-09T02:32:02.923Z,77.01
2017-06-09T02:32:31.131Z,76.92
2017-06-09T02:32:59.315Z,76.34
2017-06-09T02:33:27.512Z,76.37
2017-06-09T02:33:55.694Z,76.24
2017-06-09T02:34:23.868Z,75.99
2017-06-09T02:34:52.044Z,75.89
2017-06-09T02:35:20.205Z,76.18
2017-06-09T02:35:48.392Z,76.47
2017-06-09T02:36:16.471Z,76.43
2017-06-09T02:36:44.553Z,75.99
2017-06-09T02:37:12.759Z,75.99
2017-06-09T02:37:40.948Z,76.18
2017-06-09T02:38:09.137Z,75.99
2017-06-09T02:38:37.209Z,76.09
2017-06-09T02:39:05.378Z,75.99
2017-06-09T02:39:33.579Z,75.99
2017-06-09T02:40:01.657Z,75.99
2017-06-09T02:40:29.833Z,75.99
2017-06-09T02:40:59.557Z,75.89
2017-06-09T02:41:27.633Z,75.99
2017-06-09T02:41:55.703Z,75.99
2017-06-09T02:42:23.700Z,75.89
2017-06-09T02:42:51.891Z,75.99
2017-06-09T02:43:19.882Z,75.89
2017-06-09T02:43:48.050Z,75.89
2017-06-09T02:44:16.052Z,75.89
2017-06-09T02:44:43.951Z,76.47
2017-06-09T02:45:12.113Z,76.09
2017-06-09T02:45:40.270Z,75.99
2017-06-09T02:46:08.321Z,75.99
2017-06-09T02:46:36.477Z,76.09
2017-06-09T02:47:04.649Z,75.7
2017-06-09T02:47:32.792Z,75.6
2017-06-09T02:48:00.991Z,75.99
2017-06-09T02:48:29.085Z,76.09
2017-06-09T02:48:57.260Z,75.51
2017-06-09T02:49:25.422Z,75.31
2017-06-09T02:49:53.594Z,75.51
2017-06-09T02:50:21.559Z,75.31
2017-06-09T02:50:49.546Z,75.99
2017-06-09T02:51:17.723Z,76.28
2017-06-09T02:51:45.953Z,75.41
2017-06-09T02:52:14.090Z,75.6
2017-06-09T02:52:42.158Z,75.22
2017-06-09T02:53:10.359Z,75.6
2017-06-09T02:53:38.467Z,75.51
2017-06-09T02:54:06.665Z,75.6
2017-06-09T02:54:34.859Z,75.41
2017-06-09T02:55:03.036Z,75.7
2017-06-09T02:55:31.231Z,75.41
2017-06-09T02:55:59.314Z,75.51
2017-06-09T02:56:27.487Z,75.41
2017-06-09T02:56:55.661Z,75.6
2017-06-09T02:57:23.756Z,75.6
2017-06-09T02:57:51.837Z,75.6
2017-06-09T02:58:20.033Z,75.51
2017-06-09T02:58:48.195Z,75.51
2017-06-09T02:59:16.380Z,75.7
2017-06-09T02:59:44.561Z,75.7
2017-06-09T03:00:12.766Z,75.7
2017-06-09T03:00:40.940Z,75.6
2017-06-09T03:01:09.121Z,75.6
2017-06-09T03:01:37.136Z,75.6
2017-06-09T03:02:05.283Z,75.51
2017-06-09T03:02:33.438Z,75.41
2017-06-09T03:03:01.523Z,75.6
2017-06-09T03:03:29.733Z,75.41
2017-06-09T03:03:57.948Z,75.31
2017-06-09T03:04:26.025Z,75.02
2017-06-09T03:04:54.226Z,75.41
2017-06-09T03:05:22.427Z,75.7
2017-06-09T03:05:50.538Z,75.51
2017-06-09T03:06:18.717Z,75.51
2017-06-09T03:06:46.827Z,75.7
2017-06-09T03:07:14.895Z,75.51
2017-06-09T03:07:43.071Z,75.6
2017-06-09T03:08:11.274Z,75.31
2017-06-09T03:08:39.360Z,75.7
2017-06-09T03:09:07.550Z,75.41
2017-06-09T03:09:35.732Z,75.79
2017-06-09T03:10:03.905Z,75.6
2017-06-09T03:10:31.990Z,75.7
2017-06-09T03:11:00.226Z,75.7
2017-06-09T03:11:28.405Z,75.7
2017-06-09T03:11:56.585Z,75.51
2017-06-09T03:12:24.762Z,75.51
2017-06-09T03:12:52.963Z,75.31
2017-06-09T03:13:21.156Z,75.6
2017-06-09T03:13:49.336Z,75.51
2017-06-09T03:14:17.238Z,76.09
2017-06-09T03:14:45.414Z,75.99
2017-06-09T03:15:13.621Z,76.37
2017-06-09T03:15:41.797Z,76.28
2017-06-09T03:16:09.955Z,76.18
2017-06-09T03:16:38.022Z,76.57
2017-06-09T03:17:06.107Z,76.95
2017-06-09T03:17:34.293Z,76.86
2017-06-09T03:18:02.487Z,76.76
2017-06-09T03:18:30.682Z,76.57
2017-06-09T03:18:58.766Z,76.92
2017-06-09T03:19:26.924Z,76.72
2017-06-09T03:19:55.026Z,77.01
2017-06-09T03:20:23.110Z,77.15
2017-06-09T03:20:51.291Z,77.11
2017-06-09T03:21:19.359Z,77.59
2017-06-09T03:21:47.536Z,77.88
2017-06-09T03:22:15.731Z,77.88
2017-06-09T03:22:43.915Z,77.78
2017-06-09T03:23:12.029Z,77.78
2017-06-09T03:23:40.209Z,77.88
2017-06-09T03:24:08.406Z,78.27
2017-06-09T03:24:36.576Z,78.27
2017-06-09T03:25:04.727Z,78.08
2017-06-09T03:25:32.882Z,78.36
2017-06-09T03:26:01.073Z,78.08
2017-06-09T03:26:29.145Z,78.69
2017-06-09T03:26:57.182Z,79.47
2017-06-09T03:27:25.374Z,79.95
2017-06-09T03:27:53.548Z,80.43
2017-06-09T03:28:21.742Z,81.01
2017-06-09T03:28:49.807Z,81.26
2017-06-09T03:29:17.890Z,80.91
2017-06-09T03:29:46.083Z,81.11
2017-06-09T03:30:14.275Z,81.01
2017-06-09T03:30:42.316Z,80.82
2017-06-09T03:31:10.376Z,81.11
2017-06-09T03:31:38.550Z,80.82
2017-06-09T03:32:06.704Z,81.45
2017-06-09T03:32:34.766Z,81.11
2017-06-09T03:33:02.947Z,81.26
2017-06-09T03:33:31.125Z,80.68
2017-06-09T03:33:59.290Z,80.58
2017-06-09T03:34:27.439Z,80.39
2017-06-09T03:34:55.603Z,80.49
2017-06-09T03:35:23.743Z,80.1
2017-06-09T03:35:51.919Z,80.58
2017-06-09T03:36:19.995Z,81.55
2017-06-09T03:36:48.162Z,81.74
2017-06-09T03:37:16.331Z,82.23
2017-06-09T03:37:44.521Z,81.16
2017-06-09T03:38:12.706Z,81.45
2017-06-09T03:38:40.765Z,81.16
2017-06-09T03:39:08.942Z,81.16
2017-06-09T03:39:37.148Z,81.07
2017-06-09T03:40:05.247Z,81.26
2017-06-09T03:40:33.448Z,81.55
2017-06-09T03:41:01.522Z,81.26
2017-06-09T03:41:29.583Z,81.45
2017-06-09T03:41:57.744Z,81.07
2017-06-09T03:42:25.906Z,81.35
2017-06-09T03:42:54.064Z,81.74
2017-06-09T03:43:22.228Z,81.45
2017-06-09T03:43:50.332Z,81.55
2017-06-09T03:44:18.488Z,81.07
2017-06-09T03:44:46.503Z,81.65
2017-06-09T03:45:14.590Z,81.84
2017-06-09T03:45:42.758Z,82.42
2017-06-09T03:46:10.940Z,83.67
2017-06-09T03:46:39.087Z,84.83
2017-06-09T03:47:07.271Z,84.93
2017-06-09T03:47:35.461Z,84.44
2017-06-09T03:48:03.530Z,83.96
2017-06-09T03:48:31.603Z,83.63
2017-06-09T03:48:59.613Z,83.96
2017-06-09T03:49:27.793Z,83.29
2017-06-09T03:49:55.959Z,84.16
2017-06-09T03:50:24.048Z,83.48
2017-06-09T03:50:52.197Z,83.34
2017-06-09T03:51:20.395Z,83
2017-06-09T03:51:48.483Z,82.67
2017-06-09T03:52:16.674Z,82.96
2017-06-09T03:52:44.860Z,82.57
2017-06-09T03:53:13.023Z,82.09
2017-06-09T03:53:41.192Z,82.09
2017-06-09T03:54:09.356Z,82.09
2017-06-09T03:54:37.513Z,82.38
2017-06-09T03:55:05.587Z,82.57
2017-06-09T03:55:33.685Z,82.76
2017-06-09T03:56:01.844Z,82.28
2017-06-09T03:56:30.033Z,82.28
2017-06-09T03:56:58.187Z,82.67
2017-06-09T03:57:26.257Z,82.57
2017-06-09T03:57:54.404Z,82.57
2017-06-09T03:58:22.580Z,82.96
2017-06-09T03:58:50.747Z,83.15
2017-06-09T03:59:18.903Z,82.76
2017-06-09T03:59:46.979Z,83.15
2017-06-09T04:00:15.079Z,83.53
2017-06-09T04:00:43.186Z,83.44
2017-06-09T04:01:11.342Z,83.63
2017-06-09T04:01:39.399Z,84.01
2017-06-09T04:02:07.549Z,83.63
2017-06-09T04:02:35.745Z,83.92
2017-06-09T04:03:03.808Z,83.44
2017-06-09T04:03:31.706Z,83.92
2017-06-09T04:03:59.801Z,83.63
2017-06-09T04:04:27.953Z,83.44
2017-06-09T04:04:56.003Z,84.01
2017-06-09T04:05:24.160Z,83.53
2017-06-09T04:05:52.339Z,83.63
2017-06-09T04:06:20.502Z,83.44
2017-06-09T04:06:48.599Z,82.96
2017-06-09T04:07:16.781Z,82.76
2017-06-09T04:07:44.972Z,83.34
2017-06-09T04:08:13.033Z,83.34
2017-06-09T04:08:41.221Z,83.44
2017-06-09T04:09:09.292Z,83.05
2017-06-09T04:09:37.460Z,82.86
2017-06-09T04:10:05.546Z,82.76
2017-06-09T04:10:33.636Z,83.05
2017-06-09T04:11:01.725Z,83.2
2017-06-09T04:11:29.822Z,83.63
2017-06-09T04:11:57.984Z,83.25
2017-06-09T04:12:26.141Z,82.86
2017-06-09T04:12:54.229Z,82.96
2017-06-09T04:13:22.405Z,82.92
2017-06-09T04:13:50.596Z,82.82
2017-06-09T04:14:18.772Z,83.01
2017-06-09T04:14:46.837Z,83.11
2017-06-09T04:15:15.000Z,83.4
2017-06-09T04:15:43.192Z,83.3
2017-06-09T04:16:11.349Z,83.78
2017-06-09T04:16:39.422Z,83.69
2017-06-09T04:17:07.597Z,83.2
2017-06-09T04:17:35.752Z,83.2
2017-06-09T04:18:03.825Z,83.11
2017-06-09T04:18:31.997Z,83.2
2017-06-09T04:19:00.092Z,83.3
2017-06-09T04:19:28.174Z,83.59
2017-06-09T04:19:56.353Z,83.88
2017-06-09T04:20:24.545Z,83.59
2017-06-09T04:20:52.711Z,83.4
2017-06-09T04:21:20.767Z,84.07
2017-06-09T04:21:48.809Z,83.4
2017-06-09T04:22:16.968Z,83.5
2017-06-09T04:22:45.054Z,83.3
2017-06-09T04:23:13.220Z,83.3
2017-06-09T04:23:41.346Z,83.59
2017-06-09T04:24:09.530Z,83.45
2017-06-09T04:24:37.697Z,83.45
2017-06-09T04:25:05.771Z,83.64
2017-06-09T04:25:33.922Z,83.16
2017-06-09T04:26:02.014Z,83.64
2017-06-09T04:26:30.215Z,83.36
2017-06-09T04:26:58.385Z,83.74
2017-06-09T04:27:26.546Z,84.03
2017-06-09T04:27:54.681Z,84.42
2017-06-09T04:28:22.844Z,84.52
2017-06-09T04:28:51.038Z,84.8
2017-06-09T04:29:19.000Z,84.22
2017-06-09T04:29:47.156Z,84.32
2017-06-09T04:30:15.330Z,84.22
2017-06-09T04:30:43.489Z,84.9
2017-06-09T04:31:11.540Z,84.52
2017-06-09T04:31:39.625Z,84.7
2017-06-09T04:32:07.794Z,84.9
2017-06-09T04:32:35.974Z,84.7
2017-06-09T04:33:04.049Z,84.99
2017-06-09T04:33:32.248Z,85.09
2017-06-09T04:34:00.223Z,85.47
2017-06-09T04:34:28.274Z,85.77
2017-06-09T04:34:56.358Z,85.19
2017-06-09T04:35:24.441Z,85.77
2017-06-09T04:35:52.522Z,86.92
2017-06-09T04:36:20.598Z,86.63
2017-06-09T04:36:48.787Z,86.63
2017-06-09T04:37:16.789Z,86.44
2017-06-09T04:37:44.885Z,86.35
2017-06-09T04:38:13.067Z,86.54
2017-06-09T04:38:41.042Z,86.54
2017-06-09T04:39:09.212Z,86.54
2017-06-09T04:39:37.384Z,86.35
2017-06-09T04:40:05.558Z,86.63
2017-06-09T04:40:33.694Z,85.77
2017-06-09T04:41:01.780Z,85.67
2017-06-09T04:41:29.965Z,86.44
2017-06-09T04:41:58.131Z,85.96
2017-06-09T04:42:26.221Z,85.96
2017-06-09T04:42:54.280Z,85.67
2017-06-09T04:43:22.448Z,85.19
2017-06-09T04:43:50.627Z,85.19
2017-06-09T04:44:18.697Z,84.8
2017-06-09T04:44:46.848Z,85.09
2017-06-09T04:45:14.902Z,84.32
2017-06-09T04:45:42.888Z,85.38
2017-06-09T04:46:10.956Z,85.38
2017-06-09T04:46:38.942Z,85.38
2017-06-09T04:47:07.106Z,85.38
2017-06-09T04:47:35.200Z,85.19
2017-06-09T04:48:03.200Z,84.9
2017-06-09T04:48:31.283Z,84.8
2017-06-09T04:48:59.439Z,84.9
2017-06-09T04:49:27.505Z,84.61
2017-06-09T04:49:55.701Z,84.61
2017-06-09T04:50:23.687Z,84.9
2017-06-09T04:50:51.772Z,84.7
2017-06-09T04:51:19.933Z,84.7
2017-06-09T04:51:48.128Z,84.7
2017-06-09T04:52:16.309Z,84.52
2017-06-09T04:52:44.342Z,84.52
2017-06-09T04:53:12.501Z,84.61
2017-06-09T04:53:40.618Z,84.99
2017-06-09T04:54:08.783Z,84.99
2017-06-09T04:54:36.925Z,84.12
2017-06-09T04:55:05.023Z,84.12
2017-06-09T04:55:33.007Z,84.52
2017-06-09T04:56:01.201Z,84.7
2017-06-09T04:56:29.383Z,84.52
2017-06-09T04:56:57.559Z,84.7
2017-06-09T04:57:25.723Z,84.99
2017-06-09T04:57:53.905Z,84.76
2017-06-09T04:58:21.870Z,84.76
2017-06-09T04:58:50.042Z,84.86
2017-06-09T04:59:18.216Z,84.86
2017-06-09T04:59:46.296Z,84.86
2017-06-09T05:00:14.247Z,84.47
2017-06-09T05:00:42.414Z,84.95
2017-06-09T05:01:10.475Z,85.24
2017-06-09T05:01:38.636Z,85.05
2017-06-09T05:02:06.823Z,85.05
2017-06-09T05:02:34.869Z,85.43
2017-06-09T05:03:03.051Z,85.82
2017-06-09T05:03:31.231Z,85.82
2017-06-09T05:03:59.406Z,85.53
2017-06-09T05:04:27.383Z,86.01
2017-06-09T05:04:55.450Z,85.82
2017-06-09T05:05:23.523Z,85.53
2017-06-09T05:05:51.706Z,85.53
2017-06-09T05:06:19.758Z,85.63
2017-06-09T05:06:47.842Z,85.72
2017-06-09T05:07:15.998Z,86.01
2017-06-09T05:07:44.061Z,85.53
2017-06-09T05:08:12.136Z,85.63
2017-06-09T05:08:40.303Z,85.72
2017-06-09T05:09:08.277Z,85.63
2017-06-09T05:09:36.342Z,85.53
2017-06-09T05:10:04.506Z,85.91
2017-06-09T05:10:32.682Z,85.43
2017-06-09T05:11:00.842Z,84.76
2017-06-09T05:11:28.915Z,85.05
2017-06-09T05:11:57.086Z,84.86
2017-06-09T05:12:25.269Z,85.24
2017-06-09T05:12:53.319Z,85.43
2017-06-09T05:13:21.467Z,85.43
2017-06-09T05:13:49.639Z,85.34
2017-06-09T05:14:17.698Z,85.34
2017-06-09T05:14:45.865Z,85.34
2017-06-09T05:15:13.958Z,85.72
2017-06-09T05:15:42.119Z,85.24
2017-06-09T05:16:10.109Z,85.53
2017-06-09T05:16:38.264Z,85.34
2017-06-09T05:17:06.413Z,85.34
2017-06-09T05:17:34.571Z,85.34
2017-06-09T05:18:02.744Z,84.86
2017-06-09T05:18:30.905Z,85.14
2017-06-09T05:18:59.089Z,84.86
2017-06-09T05:19:27.263Z,85.14
2017-06-09T05:19:55.463Z,84.66
2017-06-09T05:20:23.655Z,84.66
2017-06-09T05:20:51.811Z,84.86
2017-06-09T05:21:19.989Z,85.14
2017-06-09T05:21:48.157Z,84.95
2017-06-09T05:22:16.252Z,84.56
2017-06-09T05:22:44.459Z,84.47
2017-06-09T05:23:12.621Z,85.24
2017-06-09T05:23:40.692Z,85.63
2017-06-09T05:24:08.882Z,85.34
2017-06-09T05:24:37.093Z,85.53
2017-06-09T05:25:05.091Z,85.14
2017-06-09T05:25:33.249Z,85.24
2017-06-09T05:26:01.414Z,84.66
2017-06-09T05:26:29.470Z,85.24
2017-06-09T05:26:57.661Z,84.95
2017-06-09T05:27:25.741Z,85.82
2017-06-09T05:27:53.895Z,85.24
2017-06-09T05:28:22.080Z,84.95
2017-06-09T05:28:50.263Z,85.05
2017-06-09T05:29:18.414Z,85.05
2017-06-09T05:29:46.580Z,84.95
2017-06-09T05:30:14.473Z,84.95
2017-06-09T05:30:42.644Z,85.05
2017-06-09T05:31:10.719Z,85.14
2017-06-09T05:31:38.857Z,84.95
2017-06-09T05:32:07.034Z,85.05
2017-06-09T05:32:35.106Z,85.14
2017-06-09T05:33:03.166Z,85.24
2017-06-09T05:33:31.249Z,84.95
2017-06-09T05:33:59.342Z,85.3
2017-06-09T05:34:27.538Z,84.95
2017-06-09T05:34:55.703Z,85.3
2017-06-09T05:35:23.878Z,85.58
2017-06-09T05:35:51.939Z,86.11
2017-06-09T05:36:20.007Z,86.21
2017-06-09T05:36:48.177Z,85.91
2017-06-09T05:37:16.144Z,86.11
2017-06-09T05:37:44.303Z,86.01
2017-06-09T05:38:12.371Z,85.63
2017-06-09T05:38:40.542Z,85.43
2017-06-09T05:39:09.111Z,86.78
2017-06-09T05:39:37.782Z,88.04
2017-06-09T05:40:06.381Z,88.81
2017-06-09T05:40:34.971Z,89.19
2017-06-09T05:41:03.581Z,88.9
2017-06-09T05:41:32.195Z,88.23
2017-06-09T05:42:00.698Z,88.23
2017-06-09T05:42:29.293Z,88.13
2017-06-09T05:42:57.775Z,87.46
2017-06-09T05:43:26.375Z,87.55
2017-06-09T05:43:54.920Z,86.74
2017-06-09T05:44:23.545Z,86.83
2017-06-09T05:44:52.048Z,87.03
2017-06-09T05:45:20.663Z,86.93
2017-06-09T05:45:49.270Z,87.03
2017-06-09T05:46:17.772Z,86.74
2017-06-09T05:46:46.381Z,87.03
2017-06-09T05:47:14.894Z,87.03
2017-06-09T05:47:43.404Z,87.41
2017-06-09T05:48:11.797Z,87.9
2017-06-09T05:48:40.300Z,87.51
2017-06-09T05:49:08.890Z,87.7
2017-06-09T05:49:37.488Z,88.38
2017-06-09T05:50:06.082Z,88.57
2017-06-09T05:50:34.559Z,88.95
2017-06-09T05:51:03.158Z,88.76
2017-06-09T05:51:31.746Z,88.85
2017-06-09T05:52:00.336Z,89.05
2017-06-09T05:52:28.949Z,89.05
2017-06-09T05:52:57.368Z,88.09
2017-06-09T05:53:25.857Z,88.47
2017-06-09T05:53:54.446Z,88.57
2017-06-09T05:54:23.003Z,89.63
2017-06-09T05:54:51.504Z,90.97
2017-06-09T05:55:20.131Z,91.55
2017-06-09T05:55:48.758Z,91.46
2017-06-09T05:56:17.385Z,90.78
2017-06-09T05:56:45.998Z,90.2
2017-06-09T05:57:14.592Z,89.43
2017-06-09T05:57:43.177Z,89.82
2017-06-09T05:58:11.771Z,91.17
2017-06-09T05:58:40.362Z,93.19
2017-06-09T05:59:08.951Z,93.38
2017-06-09T05:59:37.547Z,93.19
2017-06-09T06:00:06.041Z,93.09
2017-06-09T06:00:34.632Z,93.29
2017-06-09T06:01:03.143Z,92.61
2017-06-09T06:01:31.730Z,92.42
2017-06-09T06:02:00.352Z,91.55
2017-06-09T06:02:28.946Z,91.46
2017-06-09T06:02:57.438Z,91.07
2017-06-09T06:03:26.014Z,91.07
2017-06-09T06:03:54.644Z,91.36
2017-06-09T06:04:23.268Z,91.65